Nearby METAR Reports

 

KSJC - San Jose, California, USA
Distance from station: NE 9mi, 14km
Updated: Sat, 16-Feb-2019 7:53pm PST
Few Clouds
Few Clouds
 Wind from WNW
Wind: WNW 10 mph , 17 km/h
Temperature: 46°F , 8°C
Wind Chill: 41°F , 5°C
Dew Point: 39°F , 4°C
Humidity: 76%
Barometer: 30.14 inHg , 1020.7 hPa
Clouds: Few Clouds
Visibility: 10 miles , 16 km
Cloud details: Few Clouds 2500 ft
Few Clouds 8500 ft
2019/02/17 03:53 KSJC 170353Z 29009KT 10SM FEW025 FEW085 08/04 A3014 RMK AO2 SLP206 T00780039
KNUQ - Moffett Nas/Mtn, California, USA
Distance from station: N 9mi, 14km
Updated: Sat, 16-Feb-2019 7:56pm PST
Clear
Clear
 Wind from WNW
Wind: WNW 6 mph , 9 km/h
Temperature: 46°F , 8°C
Wind Chill: 43°F , 6°C
Dew Point: 37°F , 3°C
Humidity: 71%
Barometer: 30.15 inHg , 1021 hPa
Clouds: Clear
Visibility: 10 miles , 16 km
2019/02/17 03:56 KNUQ 170356Z 29005KT 10SM CLR 08/03 A3015 RMK AO2 SLP211 T00830033 $
 
KPAO - Palo Alto, California, USA
Distance from station: NNW 14mi, 23km
Updated: Sat, 16-Feb-2019 3:47pm PST
NOT Current
Mostly cloudy
Mostly cloudy
 Wind from WNW
Wind: WNW 17 mph , 28 km/h
Temperature: 52°F , 11°C
Barometer: 30.15 inHg , 1021 hPa
Clouds: Mostly cloudy
Visibility: 10 miles , 16 km
Cloud details: Partly cloudy 3000 ft
Mostly cloudy 5000 ft
2019/02/16 23:47 KPAO 162347Z 30015KT 10SM SCT030 BKN050 11/ A3015
KRHV - San Jose/Reid, California, USA
Distance from station: ENE 12mi, 19km
Updated: Fri, 15-Feb-2019 5:47pm PST
NOT Current
Overcast
Overcast
 Wind from varies
Wind: varies 6 mph , 9 km/h
Temperature: 45°F , 7°C
Wind Chill: 42°F , 6°C
Dew Point: 43°F , 6°C
Humidity: 93%
Barometer: 30.03 inHg , 1016.9 hPa
Clouds: Overcast
Visibility: 7 miles , 11 km
Cloud details: Overcast 4000 ft
2019/02/16 01:47 KRHV 160147Z VRB05KT 7SM OVC040 07/06 A3003 RA
 
KOAK - Oakland, California, USA
Distance from station: NNW 31mi, 50km
Updated: Sat, 16-Feb-2019 7:53pm PST
Few Clouds
Few Clouds
 Wind from WNW
Wind: WNW 14 mph , 22 km/h
Temperature: 48°F , 9°C
Wind Chill: 42°F , 6°C
Dew Point: 37°F , 3°C
Humidity: 66%
Barometer: 30.14 inHg , 1020.7 hPa
Clouds: Few Clouds
Visibility: 10 miles , 16 km
Cloud details: Few Clouds 3200 ft
2019/02/17 03:53 KOAK 170353Z 30012KT 10SM FEW032 09/03 A3014 RMK AO2 SLP205 T00940033
KSQL - San Carlos Airpo, California, USA
Distance from station: NW 21mi, 34km
Updated: Sat, 16-Feb-2019 7:58pm PST
Few Clouds
Few Clouds
 Wind from WSW
Wind: WSW 8 mph , 13 km/h
Temperature: 46°F , 8°C
Wind Chill: 42°F , 6°C
Dew Point: 37°F , 3°C
Humidity: 71%
Barometer: 30.13 inHg , 1020.3 hPa
Clouds: Few Clouds
Visibility: 10 miles , 16 km
Cloud details: Few Clouds 3500 ft
Few Clouds 5500 ft
2019/02/17 03:58 KSQL 170358Z 25007KT 10SM FEW035 FEW055 08/03 A3013
 
KSFO - San Francisco, California, USA
Distance from station: NW 30mi, 49km
Updated: Sat, 16-Feb-2019 7:56pm PST
Partly cloudy
Partly cloudy
 Wind from WNW
Wind: WNW 15 mph , 24 km/h
Temperature: 46°F , 8°C
Wind Chill: 40°F , 4°C
Dew Point: 36°F , 2°C
Humidity: 66%
Barometer: 30.12 inHg , 1020 hPa
Clouds: Partly cloudy
Visibility: 10 miles , 16 km
Cloud details: Few Clouds 2700 ft
Few Clouds 5500 ft
Partly cloudy 9500 ft
2019/02/17 03:56 KSFO 170356Z 29013KT 10SM FEW027 FEW055 SCT095 08/02 A3012 RMK AO2 PK WND 28027/0309 SLP200 T00830017
KE16 - San Martin, California, USA
Distance from station: ESE 27mi, 43km
Updated: Sat, 16-Feb-2019 8:15pm PST
Overcast
Overcast
 Wind from calm
Wind: Calm
Temperature: 45°F , 7°C
Dew Point: 39°F , 4°C
Humidity: 81%
Barometer: 30.16 inHg , 1021.3 hPa
Clouds: Overcast
Visibility: 10 miles , 16 km
Cloud details: Mostly cloudy 3600 ft
Overcast 4800 ft
2019/02/17 04:15 KE16 170415Z AUTO 00000KT 10SM BKN036 OVC048 07/04 A3016 RMK AO2 PWINO PNO
 
KWVI - Watsonville, California, USA
Distance from station: SSE 27mi, 44km
Updated: Sat, 16-Feb-2019 7:53pm PST
Mostly cloudy
Mostly cloudy
 Wind from W
Wind: W 8 mph , 13 km/h
Temperature: 45°F , 7°C
Wind Chill: 41°F , 5°C
Dew Point: 39°F , 4°C
Humidity: 81%
Barometer: 30.16 inHg , 1021.3 hPa
Clouds: Mostly cloudy
Visibility: 10 miles , 16 km
Cloud details: Few Clouds 5000 ft
Mostly cloudy 7000 ft
Mostly cloudy 8000 ft
2019/02/17 03:53 KWVI 170353Z AUTO 26007KT 10SM FEW050 BKN070 BKN080 07/04 A3016 RMK AO2 RAB24E37 SLP214 P0000 T00720039
KHAF - Half Moon Bay, California, USA
Distance from station: WNW 31mi, 50km
Updated: Wed, 13-Feb-2019 2:15pm PST
NOT Current
Light rain, Overcast
Light rain, Overcast
 Wind from S
Wind: S 33 mph , 54 km/h, Gust: 43 mph , 69 km/h
Temperature: 55°F , 13°C
Dew Point: 54°F , 12°C
Humidity: 94%
Barometer: 29.54 inHg , 1000.3 hPa
Summary: Light rain
Clouds: Overcast
Visibility: 3/4 mile , 1.2 km
Cloud details: Overcast 700 ft
2019/02/13 22:15 KHAF 132215Z AUTO 17029G37KT 3/4SM -RA OVC007 13/12 A2954 RMK AO2
 
KHWD - Hayward, California, USA
Distance from station: N 28mi, 44km
Updated: Sat, 16-Feb-2019 7:54pm PST
Clear
Clear
 Wind from WNW
Wind: WNW 9 mph , 15 km/h
Temperature: 48°F , 9°C
Wind Chill: 44°F , 7°C
Dew Point: 37°F , 3°C
Humidity: 66%
Barometer: 30.12 inHg , 1020 hPa
Clouds: Clear
Visibility: 10 miles , 16 km
2019/02/17 03:54 KHWD 170354Z 30008KT 10SM CLR 09/03 A3012 RMK AO2 SLP210 T00940028
KLVK - Livermore, California, USA
Distance from station: NNE 31mi, 51km
Updated: Sat, 16-Feb-2019 7:53pm PST
Clear
Clear
 Wind from W
Wind: W 13 mph , 20 km/h
Temperature: 43°F , 6°C
Wind Chill: 36°F , 2°C
Dew Point: 36°F , 2°C
Humidity: 76%
Barometer: 30.11 inHg , 1019.6 hPa
Clouds: Clear
Visibility: 10 miles , 16 km
2019/02/17 03:53 KLVK 170353Z 26011KT 10SM CLR 06/02 A3011 RMK AO2 SLP196 T00610022